sensor_id;sensor_type;location;lat;lon;timestamp;pressure;altitude;pressure_sealevel;temperature;humidity
23679;BME280;12016;51.668;6.874;2023-02-19T00:05:48;101216.88;;;8.98;91.74
23679;BME280;12016;51.668;6.874;2023-02-19T00:11:50;101443.88;;;10.47;92.11
23679;BME280;12016;51.668;6.874;2023-02-19T00:17:52;101265.06;;;9.31;91.59
23679;BME280;12016;51.668;6.874;2023-02-19T00:23:56;101458.34;;;10.51;91.57
23679;BME280;12016;51.668;6.874;2023-02-19T00:29:58;101174.47;;;8.76;91.59
23679;BME280;12016;51.668;6.874;2023-02-19T00:36:01;101448.50;;;10.60;91.71
23679;BME280;12016;51.668;6.874;2023-02-19T00:42:04;101455.28;;;10.57;91.86
23679;BME280;12016;51.668;6.874;2023-02-19T00:48:06;101236.50;;;9.17;91.63
23679;BME280;12016;51.668;6.874;2023-02-19T00:54:09;101365.47;;;9.97;91.39
23679;BME280;12016;51.668;6.874;2023-02-19T01:00:12;101411.38;;;10.24;91.93
23679;BME280;12016;51.668;6.874;2023-02-19T01:06:16;101452.06;;;10.55;91.67
23679;BME280;12016;51.668;6.874;2023-02-19T01:12:18;101412.09;;;10.30;91.86
23679;BME280;12016;51.668;6.874;2023-02-19T01:18:21;101152.97;;;8.76;91.59
23679;BME280;12016;51.668;6.874;2023-02-19T01:24:22;101132.78;;;8.59;91.86
23679;BME280;12016;51.668;6.874;2023-02-19T01:30:24;101197.13;;;8.88;92.13
23679;BME280;12016;51.668;6.874;2023-02-19T01:36:27;101460.94;;;10.56;92.17
23679;BME280;12016;51.668;6.874;2023-02-19T01:42:29;100867.34;;;6.79;91.69
23679;BME280;12016;51.668;6.874;2023-02-19T01:48:37;101357.75;;;9.90;91.94
23679;BME280;12016;51.668;6.874;2023-02-19T01:54:41;101468.09;;;10.09;92.43
23679;BME280;12016;51.668;6.874;2023-02-19T02:00:44;101460.09;;;10.42;91.77
23679;BME280;12016;51.668;6.874;2023-02-19T02:06:54;101461.47;;;10.39;91.79
23679;BME280;12016;51.668;6.874;2023-02-19T02:12:57;101266.91;;;9.12;92.27
23679;BME280;12016;51.668;6.874;2023-02-19T02:32:26;101492.72;;;10.21;91.37
23679;BME280;12016;51.668;6.874;2023-02-19T02:38:33;101133.91;;;8.11;92.13
23679;BME280;12016;51.668;6.874;2023-02-19T02:44:35;101475.25;;;10.19;91.24
23679;BME280;12016;51.668;6.874;2023-02-19T02:50:55;101102.06;;;7.80;91.72
23679;BME280;12016;51.668;6.874;2023-02-19T02:56:58;101477.97;;;10.14;92.08
23679;BME280;12016;51.668;6.874;2023-02-19T03:03:04;101041.06;;;7.43;91.19
23679;BME280;12016;51.668;6.874;2023-02-19T03:09:21;101288.41;;;8.93;91.19
23679;BME280;12016;51.668;6.874;2023-02-19T03:15:36;101485.13;;;10.04;90.90
23679;BME280;12016;51.668;6.874;2023-02-19T03:22:43;101243.13;;;8.39;90.09
23679;BME280;12016;51.668;6.874;2023-02-19T03:28:28;101248.94;;;8.46;91.26
23679;BME280;12016;51.668;6.874;2023-02-19T03:34:57;101351.19;;;8.98;90.74
23679;BME280;12016;51.668;6.874;2023-02-19T03:41:10;101375.22;;;9.13;91.29
23679;BME280;12016;51.668;6.874;2023-02-19T03:47:26;101513.13;;;10.03;92.00
23679;BME280;12016;51.668;6.874;2023-02-19T03:59:44;101523.25;;;9.69;90.59
23679;BME280;12016;51.668;6.874;2023-02-19T04:05:51;101546.25;;;9.80;91.30
23679;BME280;12016;51.668;6.874;2023-02-19T04:11:55;101543.44;;;9.90;91.19
23679;BME280;12016;51.668;6.874;2023-02-19T04:18:00;101475.53;;;9.32;91.08
23679;BME280;12016;51.668;6.874;2023-02-19T04:24:25;101587.66;;;9.84;89.91
23679;BME280;12016;51.668;6.874;2023-02-19T04:30:28;101054.91;;;6.59;90.46
23679;BME280;12016;51.668;6.874;2023-02-19T04:36:31;101525.13;;;9.45;90.93
23679;BME280;12016;51.668;6.874;2023-02-19T04:42:33;101419.13;;;8.79;91.01
23679;BME280;12016;51.668;6.874;2023-02-19T04:48:34;101529.72;;;9.44;90.98
23679;BME280;12016;51.668;6.874;2023-02-19T04:54:36;101458.13;;;9.01;90.79
23679;BME280;12016;51.668;6.874;2023-02-19T05:00:38;101599.25;;;9.80;90.99
23679;BME280;12016;51.668;6.874;2023-02-19T05:06:40;101522.03;;;9.32;90.99
23679;BME280;12016;51.668;6.874;2023-02-19T05:12:42;101398.19;;;8.47;90.57
23679;BME280;12016;51.668;6.874;2023-02-19T05:18:44;101626.41;;;9.83;90.75
23679;BME280;12016;51.668;6.874;2023-02-19T05:24:47;101625.63;;;9.78;91.44
23679;BME280;12016;51.668;6.874;2023-02-19T05:30:50;101640.13;;;9.82;90.95
23679;BME280;12016;51.668;6.874;2023-02-19T05:36:53;101630.00;;;9.74;90.62
23679;BME280;12016;51.668;6.874;2023-02-19T05:42:55;101410.41;;;8.30;90.95
23679;BME280;12016;51.668;6.874;2023-02-19T05:48:58;101489.25;;;8.44;90.63
23679;BME280;12016;51.668;6.874;2023-02-19T05:55:00;101659.50;;;9.84;91.34
23679;BME280;12016;51.668;6.874;2023-02-19T06:01:02;101550.06;;;8.58;90.73
23679;BME280;12016;51.668;6.874;2023-02-19T06:07:03;101165.16;;;6.56;90.08
23679;BME280;12016;51.668;6.874;2023-02-19T06:13:09;101682.25;;;9.67;90.81
23679;BME280;12016;51.668;6.874;2023-02-19T06:19:11;101540.97;;;8.88;90.71
23679;BME280;12016;51.668;6.874;2023-02-19T06:25:13;101717.19;;;9.73;90.81
23679;BME280;12016;51.668;6.874;2023-02-19T06:31:16;101496.97;;;8.50;90.07
23679;BME280;12016;51.668;6.874;2023-02-19T06:37:18;101413.81;;;8.01;90.16
23679;BME280;12016;51.668;6.874;2023-02-19T06:43:20;101703.72;;;9.73;89.94
23679;BME280;12016;51.668;6.874;2023-02-19T06:49:22;101716.66;;;9.71;90.26
23679;BME280;12016;51.668;6.874;2023-02-19T06:55:24;101560.50;;;8.65;89.75
23679;BME280;12016;51.668;6.874;2023-02-19T07:01:29;101740.25;;;9.79;90.32
23679;BME280;12016;51.668;6.874;2023-02-19T07:07:31;101458.09;;;7.99;90.48
23679;BME280;12016;51.668;6.874;2023-02-19T07:13:33;101592.44;;;8.67;90.04
23679;BME280;12016;51.668;6.874;2023-02-19T07:19:34;101655.06;;;9.06;90.22
23679;BME280;12016;51.668;6.874;2023-02-19T07:25:36;101634.56;;;8.76;89.79
23679;BME280;12016;51.668;6.874;2023-02-19T07:31:38;101612.63;;;8.59;89.75
23679;BME280;12016;51.668;6.874;2023-02-19T07:37:40;101293.31;;;6.67;89.94
23679;BME280;12016;51.668;6.874;2023-02-19T07:43:42;101689.72;;;9.08;89.27
23679;BME280;12016;51.668;6.874;2023-02-19T07:49:44;101423.28;;;7.34;89.89
23679;BME280;12016;51.668;6.874;2023-02-19T07:55:46;101847.59;;;9.80;89.90
23679;BME280;12016;51.668;6.874;2023-02-19T08:01:48;101545.81;;;7.98;89.70
23679;BME280;12016;51.668;6.874;2023-02-19T08:08:11;101845.44;;;9.82;89.54
23679;BME280;12016;51.668;6.874;2023-02-19T08:14:13;101527.22;;;7.47;88.99
23679;BME280;12016;51.668;6.874;2023-02-19T08:20:15;101784.75;;;9.61;89.27
23679;BME280;12016;51.668;6.874;2023-02-19T08:26:17;101654.50;;;8.65;89.55
23679;BME280;12016;51.668;6.874;2023-02-19T08:32:19;101790.50;;;9.49;89.81
23679;BME280;12016;51.668;6.874;2023-02-19T08:38:21;101659.38;;;8.53;89.91
23679;BME280;12016;51.668;6.874;2023-02-19T08:44:23;101868.75;;;9.97;89.14
23679;BME280;12016;51.668;6.874;2023-02-19T08:50:26;101555.25;;;7.91;88.86
23679;BME280;12016;51.668;6.874;2023-02-19T08:56:29;101831.34;;;9.56;89.20
23679;BME280;12016;51.668;6.874;2023-02-19T09:02:31;101819.59;;;9.42;89.08
23679;BME280;12016;51.668;6.874;2023-02-19T09:08:33;101803.47;;;9.42;88.93
23679;BME280;12016;51.668;6.874;2023-02-19T09:14:35;101544.94;;;7.23;88.57
23679;BME280;12016;51.668;6.874;2023-02-19T09:20:37;101900.13;;;9.73;88.72
23679;BME280;12016;51.668;6.874;2023-02-19T09:26:39;101921.25;;;9.89;88.97
23679;BME280;12016;51.668;6.874;2023-02-19T09:32:41;101937.00;;;10.11;88.63
23679;BME280;12016;51.668;6.874;2023-02-19T09:38:43;101918.28;;;9.91;88.76
23679;BME280;12016;51.668;6.874;2023-02-19T09:44:47;101677.44;;;8.42;87.85
23679;BME280;12016;51.668;6.874;2023-02-19T09:50:50;101925.50;;;9.51;87.66
23679;BME280;12016;51.668;6.874;2023-02-19T09:56:54;101989.41;;;10.29;87.52
23679;BME280;12016;51.668;6.874;2023-02-19T10:03:03;101995.25;;;10.41;87.22
23679;BME280;12016;51.668;6.874;2023-02-19T10:09:28;102028.28;;;10.52;87.71
23679;BME280;12016;51.668;6.874;2023-02-19T10:15:33;102020.34;;;10.36;86.44
23679;BME280;12016;51.668;6.874;2023-02-19T10:21:37;101915.25;;;9.58;86.02
23679;BME280;12016;51.668;6.874;2023-02-19T10:27:39;101736.06;;;8.79;85.78
23679;BME280;12016;51.668;6.874;2023-02-19T10:33:52;102051.16;;;11.22;84.24
23679;BME280;12016;51.668;6.874;2023-02-19T10:39:54;101884.63;;;9.93;84.11
23679;BME280;12016;51.668;6.874;2023-02-19T10:45:58;102049.50;;;11.55;85.13
23679;BME280;12016;51.668;6.874;2023-02-19T10:58:25;101782.78;;;9.77;78.82
23679;BME280;12016;51.668;6.874;2023-02-19T11:04:32;102085.59;;;11.30;81.04
23679;BME280;12016;51.668;6.874;2023-02-19T11:10:39;102124.75;;;12.09;82.34
23679;BME280;12016;51.668;6.874;2023-02-19T11:16:57;101954.59;;;10.71;80.81
23679;BME280;12016;51.668;6.874;2023-02-19T11:23:12;101925.06;;;10.27;84.32
23679;BME280;12016;51.668;6.874;2023-02-19T11:29:20;102047.25;;;11.09;84.98
23679;BME280;12016;51.668;6.874;2023-02-19T11:35:24;101929.22;;;10.49;85.11
23679;BME280;12016;51.668;6.874;2023-02-19T11:41:54;101618.63;;;8.85;84.07
23679;BME280;12016;51.668;6.874;2023-02-19T12:01:04;102080.28;;;10.91;84.85
23679;BME280;12016;51.668;6.874;2023-02-19T12:07:50;102084.19;;;11.09;84.32
23679;BME280;12016;51.668;6.874;2023-02-19T12:20:33;102105.97;;;10.84;85.48
23679;BME280;12016;51.668;6.874;2023-02-19T12:39:19;102125.78;;;11.03;86.16
23679;BME280;12016;51.668;6.874;2023-02-19T12:45:37;102123.34;;;11.01;86.12
23679;BME280;12016;51.668;6.874;2023-02-19T12:52:01;101326.88;;;6.09;85.81
23679;BME280;12016;51.668;6.874;2023-02-19T12:58:09;101929.59;;;9.88;86.13
23679;BME280;12016;51.668;6.874;2023-02-19T13:04:24;102125.44;;;11.09;86.08
23679;BME280;12016;51.668;6.874;2023-02-19T13:10:49;101925.41;;;8.97;86.15
23679;BME280;12016;51.668;6.874;2023-02-19T13:16:57;102129.09;;;11.24;86.38
23679;BME280;12016;51.668;6.874;2023-02-19T13:23:07;102129.78;;;11.39;86.11
23679;BME280;12016;51.668;6.874;2023-02-19T13:35:59;102170.19;;;11.16;86.10
23679;BME280;12016;51.668;6.874;2023-02-19T13:42:23;102185.38;;;11.01;85.87
23679;BME280;12016;51.668;6.874;2023-02-19T13:54:34;101895.13;;;8.51;86.22
23679;BME280;12016;51.668;6.874;2023-02-19T14:00:47;102188.25;;;10.66;85.31
23679;BME280;12016;51.668;6.874;2023-02-19T14:13:07;101882.22;;;8.73;85.70
23679;BME280;12016;51.668;6.874;2023-02-19T14:19:20;102128.97;;;10.12;86.36
23679;BME280;12016;51.668;6.874;2023-02-19T14:31:44;101599.59;;;6.71;86.75
23679;BME280;12016;51.668;6.874;2023-02-19T14:37:48;102088.41;;;9.78;85.98
23679;BME280;12016;51.668;6.874;2023-02-19T14:43:54;102252.81;;;10.07;85.80
23679;BME280;12016;51.668;6.874;2023-02-19T14:50:00;101944.78;;;8.84;86.66
23679;BME280;12016;51.668;6.874;2023-02-19T14:56:04;102121.13;;;10.15;86.62
23679;BME280;12016;51.668;6.874;2023-02-19T15:02:15;101904.78;;;8.62;84.87
23679;BME280;12016;51.668;6.874;2023-02-19T15:08:21;101877.41;;;8.60;86.06
23679;BME280;12016;51.668;6.874;2023-02-19T15:14:27;101894.22;;;9.01;85.96
23679;BME280;12016;51.668;6.874;2023-02-19T15:20:33;102148.97;;;10.55;86.51
23679;BME280;12016;51.668;6.874;2023-02-19T15:26:47;102132.88;;;10.45;86.56
23679;BME280;12016;51.668;6.874;2023-02-19T15:32:57;102128.03;;;10.42;86.50
23679;BME280;12016;51.668;6.874;2023-02-19T15:39:00;102136.66;;;10.44;86.14
23679;BME280;12016;51.668;6.874;2023-02-19T15:51:22;102176.06;;;10.24;86.24
23679;BME280;12016;51.668;6.874;2023-02-19T15:57:30;101832.59;;;8.15;84.96
23679;BME280;12016;51.668;6.874;2023-02-19T16:03:34;101545.84;;;6.00;83.41
23679;BME280;12016;51.668;6.874;2023-02-19T16:09:38;101999.88;;;8.66;84.26
23679;BME280;12016;51.668;6.874;2023-02-19T16:15:40;101912.28;;;8.14;81.97
23679;BME280;12016;51.668;6.874;2023-02-19T16:21:44;102031.03;;;8.67;81.73
23679;BME280;12016;51.668;6.874;2023-02-19T16:27:47;101595.75;;;5.85;80.31
23679;BME280;12016;51.668;6.874;2023-02-19T16:33:49;102017.28;;;8.33;81.07
23679;BME280;12016;51.668;6.874;2023-02-19T16:46:28;101755.47;;;5.35;81.85
23679;BME280;12016;51.668;6.874;2023-02-19T16:52:33;101276.09;;;2.84;81.71
23679;BME280;12016;51.668;6.874;2023-02-19T16:58:42;102183.88;;;8.74;83.41
23679;BME280;12016;51.668;6.874;2023-02-19T17:04:45;101963.72;;;7.18;83.23
23679;BME280;12016;51.668;6.874;2023-02-19T17:10:48;102263.81;;;9.19;83.82
23679;BME280;12016;51.668;6.874;2023-02-19T17:16:50;101977.97;;;7.29;83.73
23679;BME280;12016;51.668;6.874;2023-02-19T17:22:54;102283.03;;;8.85;85.08
23679;BME280;12016;51.668;6.874;2023-02-19T17:29:01;102290.13;;;9.22;85.98
23679;BME280;12016;51.668;6.874;2023-02-19T17:35:04;102012.44;;;7.52;85.88
23679;BME280;12016;51.668;6.874;2023-02-19T17:41:09;102342.88;;;9.28;86.33
23679;BME280;12016;51.668;6.874;2023-02-19T17:47:11;102223.06;;;8.65;85.91
23679;BME280;12016;51.668;6.874;2023-02-19T17:53:13;102106.78;;;7.54;85.58
23679;BME280;12016;51.668;6.874;2023-02-19T17:59:15;102339.53;;;8.95;86.04
23679;BME280;12016;51.668;6.874;2023-02-19T18:05:19;102340.47;;;8.74;86.22
23679;BME280;12016;51.668;6.874;2023-02-19T18:11:21;102073.16;;;6.68;86.13
23679;BME280;12016;51.668;6.874;2023-02-19T18:17:24;102342.22;;;8.48;86.03
23679;BME280;12016;51.668;6.874;2023-02-19T18:23:27;102348.38;;;8.44;86.51
23679;BME280;12016;51.668;6.874;2023-02-19T18:29:29;102086.19;;;6.86;86.02
23679;BME280;12016;51.668;6.874;2023-02-19T18:35:32;102369.66;;;8.55;86.07
23679;BME280;12016;51.668;6.874;2023-02-19T18:41:35;102176.94;;;7.41;86.20
23679;BME280;12016;51.668;6.874;2023-02-19T18:47:37;102153.31;;;6.79;85.54
23679;BME280;12016;51.668;6.874;2023-02-19T18:53:41;102254.66;;;7.41;85.94
23679;BME280;12016;51.668;6.874;2023-02-19T18:59:43;102372.00;;;8.15;85.85
23679;BME280;12016;51.668;6.874;2023-02-19T19:05:46;102388.69;;;8.17;86.02
23679;BME280;12016;51.668;6.874;2023-02-19T19:11:48;102154.09;;;6.75;86.04
23679;BME280;12016;51.668;6.874;2023-02-19T19:17:50;102010.53;;;5.71;85.94
23679;BME280;12016;51.668;6.874;2023-02-19T19:23:52;102409.59;;;8.15;86.31
23679;BME280;12016;51.668;6.874;2023-02-19T19:29:54;102379.44;;;8.08;86.87
23679;BME280;12016;51.668;6.874;2023-02-19T19:35:56;102385.50;;;7.93;87.01
23679;BME280;12016;51.668;6.874;2023-02-19T19:42:19;102283.66;;;7.44;85.93
23679;BME280;12016;51.668;6.874;2023-02-19T19:48:23;102378.06;;;7.73;86.72
23679;BME280;12016;51.668;6.874;2023-02-19T19:54:29;101758.59;;;3.68;86.60
23679;BME280;12016;51.668;6.874;2023-02-19T20:00:31;102143.16;;;5.89;86.79
23679;BME280;12016;51.668;6.874;2023-02-19T20:06:33;102432.53;;;7.74;86.21
23679;BME280;12016;51.668;6.874;2023-02-19T20:12:39;102241.72;;;6.58;86.04
23679;BME280;12016;51.668;6.874;2023-02-19T20:18:41;102402.59;;;7.60;87.14
23679;BME280;12016;51.668;6.874;2023-02-19T20:24:43;102159.66;;;6.25;86.09
23679;BME280;12016;51.668;6.874;2023-02-19T20:30:45;102323.47;;;7.09;86.52
23679;BME280;12016;51.668;6.874;2023-02-19T20:36:47;102422.28;;;7.71;86.19
23679;BME280;12016;51.668;6.874;2023-02-19T20:42:49;102215.47;;;6.38;85.62
23679;BME280;12016;51.668;6.874;2023-02-19T20:48:50;101739.94;;;3.06;85.73
23679;BME280;12016;51.668;6.874;2023-02-19T20:54:54;102412.97;;;7.51;86.42
23679;BME280;12016;51.668;6.874;2023-02-19T21:00:58;102400.06;;;7.48;86.59
23679;BME280;12016;51.668;6.874;2023-02-19T21:07:00;102417.06;;;7.59;86.96
23679;BME280;12016;51.668;6.874;2023-02-19T21:13:02;102446.19;;;7.50;86.57
23679;BME280;12016;51.668;6.874;2023-02-19T21:19:04;102422.63;;;7.52;85.80
23679;BME280;12016;51.668;6.874;2023-02-19T21:25:06;101939.59;;;4.31;85.22
23679;BME280;12016;51.668;6.874;2023-02-19T21:31:08;101887.38;;;4.02;86.42
23679;BME280;12016;51.668;6.874;2023-02-19T21:37:10;102392.03;;;7.27;85.78
23679;BME280;12016;51.668;6.874;2023-02-19T21:43:12;102185.00;;;6.00;85.39
23679;BME280;12016;51.668;6.874;2023-02-19T21:49:14;102390.53;;;7.36;85.65
23679;BME280;12016;51.668;6.874;2023-02-19T21:55:16;102404.09;;;7.29;85.60
23679;BME280;12016;51.668;6.874;2023-02-19T22:01:22;102298.19;;;6.39;85.30
23679;BME280;12016;51.668;6.874;2023-02-19T22:07:25;102189.09;;;5.69;85.39
23679;BME280;12016;51.668;6.874;2023-02-19T22:13:26;102330.63;;;6.43;85.18
23679;BME280;12016;51.668;6.874;2023-02-19T22:19:30;102413.38;;;7.00;84.64
23679;BME280;12016;51.668;6.874;2023-02-19T22:25:32;102416.19;;;6.71;84.82
23679;BME280;12016;51.668;6.874;2023-02-19T22:31:34;102260.88;;;5.94;85.32
23679;BME280;12016;51.668;6.874;2023-02-19T22:37:37;102073.78;;;4.77;85.41
23679;BME280;12016;51.668;6.874;2023-02-19T22:43:38;102421.13;;;6.79;84.52
23679;BME280;12016;51.668;6.874;2023-02-19T22:49:40;102399.69;;;6.79;84.46
23679;BME280;12016;51.668;6.874;2023-02-19T22:55:44;102319.31;;;6.19;84.74
23679;BME280;12016;51.668;6.874;2023-02-19T23:01:46;102411.06;;;6.70;84.17
23679;BME280;12016;51.668;6.874;2023-02-19T23:07:49;102418.88;;;6.55;83.60
23679;BME280;12016;51.668;6.874;2023-02-19T23:13:51;102421.41;;;6.61;83.67
23679;BME280;12016;51.668;6.874;2023-02-19T23:19:53;102418.44;;;6.63;83.77
23679;BME280;12016;51.668;6.874;2023-02-19T23:25:55;102247.72;;;5.43;83.55
23679;BME280;12016;51.668;6.874;2023-02-19T23:31:57;102110.06;;;4.61;84.02
23679;BME280;12016;51.668;6.874;2023-02-19T23:38:00;102399.66;;;6.41;84.57
23679;BME280;12016;51.668;6.874;2023-02-19T23:44:02;102221.66;;;5.21;83.94
23679;BME280;12016;51.668;6.874;2023-02-19T23:50:05;102159.44;;;4.76;83.93
23679;BME280;12016;51.668;6.874;2023-02-19T23:56:07;102385.06;;;6.32;83.79
